Flight Information

DEPARTURE
,
Elevation:
DESTINATION
LOS ANGELES, CA
Elevation:
127
TPA:
1127 (est.)
Runways:
6L/24R - 8926x150 - ASPH-CONC-G
6R/24L - 10885x150 - CONC-G
7L/25R - 12923x150 - CONC-G
7R/25L - 11095x200 - ASPH-CONC-G
Active PE Arriving:
24R - 25L
Active PE Approach:
ILS RUNWAY 2 4 RIGHT AND 2 5 LEFT APPROACH IN USE OR VECTOR FOR VISUAL APPROACH WILL BE PROVIDED.
Current PE ATIS:
J
Altimeter:
29.87
Remarks:
SIMULTANEOUS VISUAL APPROACHES TO ALL RUNWAYS ARE IN PROGRESS. SIMULTANEOUS INSTRUMENT DEPARTURES IN PROGRESS. V F R DEPARTURES CONTACT CLEARANCE DELIVERY, ADVISE ON COURSE HEADING, ALTITUDE, AND IF FLIGHT FOLLOWING IS REQUESTED.
ATIS:
ARR 133.8 DEP 135.65 310-646-2297
Tower:
133.9 (N. complex), 120.95 (S. complex) 119.8
Ground:
121.75 (S. complex) 121.65 (N. complex)


6794.5 NM307° True-66° Var241° HDG

Flight Plan:
(click to file on line)

1. Type
2. Aircraft Identification
3. Aircraft Type / Special Equipment
4. True Airspeed
kts
5. Departure Airport
(ICAO code)
6. Arriving Airport
(ICAO code)
7. Cruising Altitude
ft
8. Alternate Airport
(ICAO code)
9. Route of Flight
10. Remarks


00:00:00 Departure ATIS: Destination ATIS:

Clearance Limit:
Route:
Altitude: Expect in minutes
Frequency:
Transponder: (7500 Hijack / 7600 Lost Comms / 7700 Emergency)


WSSS 252230Z 32003KT 5000 BR FEW020 BKN300 25/25 Q1008 NOSIG
Time: 2021-10-25T22:30:00Z
1635202426
Winds: 320 @ 3 kts
Visibility: 3.11 sm
Clouds (AGL): FEW 2000
BKN 30000
Temperature: 25.0 C
Dew Point: 25.0 C
Pressure: 29.763779 in Hgbr

KLAX 252153Z 25012KT 10SM -RA FEW033 BKN049 OVC065 16/14 A2987 RMK AO2 SLP112 P0006 T01560139 $
Time: 2021-10-25T21:53:00Z
1635202427
Winds: 250 @ 12 kts
Visibility: 10.0 sm
Clouds (AGL): FEW 3300
BKN 4900
OVC 6500
Temperature: 15.6 C
Dew Point: 13.9 C
Pressure: 29.870079 in Hgbr


Notes:

Data extracted from FAA Digital Chart Supplement. Effective: 0901Z Thursday, OCT 7, 2021 to 0901Z Thursday, DEC 2, 2021
Current ATIS data is provided courtisy of PilotEdge.